createdAt,value
2022-09-16T00:02:09.632Z,9.67
2022-09-16T00:04:37.196Z,9.70
2022-09-16T00:07:05.917Z,9.68
2022-09-16T00:09:33.222Z,9.73
2022-09-16T00:12:01.012Z,9.75
2022-09-16T00:14:28.353Z,9.78
2022-09-16T00:16:55.928Z,9.78
2022-09-16T00:19:23.184Z,9.76
2022-09-16T00:21:50.694Z,9.71
2022-09-16T00:24:19.272Z,9.70
2022-09-16T00:26:46.750Z,9.66
2022-09-16T00:29:14.048Z,9.62
2022-09-16T00:31:41.483Z,9.61
2022-09-16T00:34:08.732Z,9.58
2022-09-16T00:36:36.074Z,9.56
2022-09-16T00:39:03.496Z,9.56
2022-09-16T00:41:36.938Z,9.54
2022-09-16T00:44:06.102Z,9.40
2022-09-16T00:46:39.918Z,9.45
2022-09-16T00:49:13.460Z,9.51
2022-09-16T00:51:42.229Z,9.47
2022-09-16T00:54:10.251Z,9.48
2022-09-16T00:56:41.845Z,9.47
2022-09-16T00:59:13.131Z,9.53
2022-09-16T01:01:43.340Z,9.61
2022-09-16T01:04:16.634Z,9.69
2022-09-16T01:06:44.038Z,9.76
2022-09-16T01:09:11.285Z,9.82
2022-09-16T01:11:39.843Z,9.87
2022-09-16T01:14:26.171Z,9.89
2022-09-16T01:17:00.293Z,9.89
2022-09-16T01:19:44.578Z,9.87
2022-09-16T01:22:25.080Z,9.79
2022-09-16T01:25:00.120Z,9.79
2022-09-16T01:27:57.719Z,9.81
2022-09-16T01:30:43.885Z,9.84
2022-09-16T01:33:21.185Z,9.84
2022-09-16T01:36:03.857Z,9.92
2022-09-16T01:38:46.494Z,9.94
2022-09-16T01:41:24.713Z,9.98
2022-09-16T01:43:59.015Z,10.07
2022-09-16T01:46:35.035Z,10.13
2022-09-16T01:49:09.907Z,10.15
2022-09-16T01:51:44.679Z,10.17
2022-09-16T01:54:18.961Z,10.18
2022-09-16T01:56:54.724Z,9.93
2022-09-16T01:59:29.000Z,10.21
2022-09-16T02:02:03.466Z,10.11
2022-09-16T02:04:36.932Z,10.29
2022-09-16T02:07:08.483Z,10.22
2022-09-16T02:09:40.991Z,10.33
2022-09-16T02:12:18.377Z,10.39
2022-09-16T02:14:49.292Z,10.42
2022-09-16T02:17:23.395Z,10.41
2022-09-16T02:19:57.257Z,10.42
2022-09-16T02:22:32.216Z,10.42
2022-09-16T02:25:02.550Z,10.32
2022-09-16T02:27:32.407Z,10.43
2022-09-16T02:30:05.804Z,10.37
2022-09-16T02:32:39.964Z,10.29
2022-09-16T02:35:10.966Z,10.40
2022-09-16T02:37:42.826Z,10.45
2022-09-16T02:40:16.376Z,10.46
2022-09-16T02:42:43.870Z,10.45
2022-09-16T02:45:12.468Z,10.47
2022-09-16T02:47:54.941Z,10.53
2022-09-16T02:50:29.971Z,10.53
2022-09-16T02:53:01.959Z,10.55
2022-09-16T02:55:38.388Z,10.57
2022-09-16T02:58:06.204Z,10.55
2022-09-16T03:00:37.771Z,10.50
2022-09-16T03:03:06.606Z,10.53
2022-09-16T03:05:34.193Z,10.49
2022-09-16T03:08:04.234Z,10.55
2022-09-16T03:10:43.409Z,10.56
2022-09-16T03:13:19.739Z,10.60
2022-09-16T03:15:58.916Z,10.62
2022-09-16T03:21:38.432Z,10.61
2022-09-16T03:24:12.937Z,10.62
2022-09-16T03:26:47.610Z,10.63
2022-09-16T03:29:24.367Z,10.72
2022-09-16T03:31:58.060Z,10.75
2022-09-16T03:34:32.774Z,10.78
2022-09-16T03:37:03.600Z,10.79
2022-09-16T03:39:33.078Z,10.81
2022-09-16T03:42:02.297Z,10.89
2022-09-16T03:44:34.036Z,10.94
2022-09-16T03:47:01.466Z,10.88
2022-09-16T03:49:30.608Z,10.90
2022-09-16T03:51:58.170Z,10.89
2022-09-16T03:54:25.756Z,10.97
2022-09-16T03:56:53.014Z,11.13
2022-09-16T03:59:20.199Z,11.19
2022-09-16T04:01:47.983Z,11.14
2022-09-16T04:04:15.814Z,11.25
2022-09-16T04:06:44.549Z,11.22
2022-09-16T04:09:13.139Z,11.19
2022-09-16T04:11:40.845Z,11.18
2022-09-16T04:14:08.283Z,11.15
2022-09-16T04:16:35.601Z,11.11
2022-09-16T04:19:03.051Z,11.19
2022-09-16T04:21:30.229Z,11.20
2022-09-16T04:23:58.927Z,11.33
2022-09-16T04:26:26.111Z,11.36
2022-09-16T04:28:54.871Z,11.41
2022-09-16T04:31:22.623Z,11.38
2022-09-16T04:33:50.131Z,11.39
2022-09-16T04:36:22.800Z,11.49
2022-09-16T04:38:50.024Z,11.49
2022-09-16T04:41:23.465Z,11.45
2022-09-16T04:43:56.226Z,11.42
2022-09-16T04:46:24.317Z,11.59
2022-09-16T04:48:56.161Z,11.44
2022-09-16T04:51:24.241Z,11.50
2022-09-16T04:53:51.651Z,11.49
2022-09-16T04:56:22.503Z,11.55
2022-09-16T04:58:52.397Z,11.48
2022-09-16T05:01:21.319Z,11.54
2022-09-16T05:03:50.793Z,11.51
2022-09-16T05:06:20.819Z,11.54
2022-09-16T05:08:48.646Z,11.53
2022-09-16T05:11:18.078Z,11.51
2022-09-16T05:13:47.319Z,11.60
2022-09-16T05:16:16.072Z,11.67
2022-09-16T05:18:45.044Z,11.68
2022-09-16T05:21:13.971Z,11.65
2022-09-16T05:23:44.513Z,11.73
2022-09-16T05:26:16.262Z,11.68
2022-09-16T05:28:43.739Z,11.83
2022-09-16T05:31:14.260Z,11.76
2022-09-16T05:33:42.633Z,11.93
2022-09-16T05:36:11.701Z,12.04
2022-09-16T05:38:40.724Z,11.96
2022-09-16T05:41:08.679Z,11.92
2022-09-16T05:43:37.555Z,12.04
2022-09-16T05:46:06.762Z,11.99
2022-09-16T05:48:36.512Z,12.02
2022-09-16T05:51:05.446Z,11.79
2022-09-16T05:53:34.505Z,12.21
2022-09-16T05:56:05.188Z,12.27
2022-09-16T05:58:34.362Z,12.19
2022-09-16T06:01:03.033Z,12.14
2022-09-16T06:03:30.699Z,12.06
2022-09-16T06:06:03.412Z,12.18
2022-09-16T06:08:32.943Z,12.11
2022-09-16T06:11:01.295Z,12.20
2022-09-16T06:13:28.849Z,12.27
2022-09-16T06:15:56.143Z,12.28
2022-09-16T06:18:24.958Z,12.35
2022-09-16T06:20:52.347Z,12.42
2022-09-16T06:23:21.522Z,12.46
2022-09-16T06:25:49.022Z,12.46
2022-09-16T06:28:16.852Z,12.57
2022-09-16T06:30:44.053Z,12.48
2022-09-16T06:33:12.893Z,12.65
2022-09-16T06:35:40.041Z,12.81
2022-09-16T06:38:07.263Z,12.89
2022-09-16T06:40:36.230Z,12.90
2022-09-16T06:43:03.506Z,13.05
2022-09-16T06:45:30.935Z,13.09
2022-09-16T06:48:00.518Z,13.24
2022-09-16T06:50:27.783Z,13.26
2022-09-16T06:52:54.924Z,13.29
2022-09-16T06:55:22.068Z,13.41
2022-09-16T06:57:51.197Z,13.65
2022-09-16T07:00:18.743Z,13.74
2022-09-16T07:02:46.117Z,13.97
2022-09-16T07:05:13.830Z,14.12
2022-09-16T07:07:41.367Z,14.34
2022-09-16T07:10:09.320Z,14.46
2022-09-16T07:12:36.468Z,14.68
2022-09-16T07:15:06.272Z,14.89
2022-09-16T07:17:33.801Z,15.09
2022-09-16T07:20:01.000Z,15.25
2022-09-16T07:22:31.994Z,15.58
2022-09-16T07:24:59.367Z,15.88
2022-09-16T07:27:26.914Z,16.28
2022-09-16T07:29:54.354Z,16.66
2022-09-16T07:32:23.147Z,17.02
2022-09-16T07:34:50.435Z,17.18
2022-09-16T07:37:19.609Z,17.20
2022-09-16T07:39:46.871Z,17.36
2022-09-16T07:42:14.092Z,17.43
2022-09-16T07:44:41.500Z,17.51
2022-09-16T07:47:08.634Z,17.80
2022-09-16T07:49:37.423Z,18.02
2022-09-16T07:52:04.759Z,18.07
2022-09-16T07:54:32.292Z,18.13
2022-09-16T07:56:59.511Z,18.15
2022-09-16T07:59:26.908Z,18.26
2022-09-16T08:01:54.205Z,18.25
2022-09-16T08:04:21.458Z,18.32
2022-09-16T08:06:50.324Z,18.35
2022-09-16T08:12:06.403Z,18.78
2022-09-16T08:14:33.858Z,19.04
2022-09-16T08:17:02.017Z,19.47
2022-09-16T08:19:29.290Z,19.97
2022-09-16T08:21:57.856Z,20.62
2022-09-16T08:24:25.311Z,21.12
2022-09-16T08:26:53.083Z,21.46
2022-09-16T08:29:22.562Z,21.63
2022-09-16T08:31:50.293Z,21.83
2022-09-16T08:34:18.237Z,21.66
2022-09-16T08:36:45.901Z,21.53
2022-09-16T08:39:15.297Z,21.49
2022-09-16T08:42:04.708Z,21.41
2022-09-16T08:44:40.049Z,21.00
2022-09-16T08:47:19.199Z,20.74
2022-09-16T08:49:48.909Z,20.37
2022-09-16T08:52:26.816Z,20.21
2022-09-16T08:54:59.828Z,20.09
2022-09-16T08:57:30.007Z,19.44
2022-09-16T09:00:01.816Z,19.28
2022-09-16T09:05:18.761Z,19.22
2022-09-16T09:07:57.069Z,19.10
2022-09-16T09:10:34.692Z,18.95
2022-09-16T09:13:19.506Z,19.08
2022-09-16T09:15:55.279Z,18.81
2022-09-16T09:18:38.040Z,18.51
2022-09-16T09:21:16.092Z,18.55
2022-09-16T09:23:57.972Z,18.68
2022-09-16T09:26:37.118Z,18.42
2022-09-16T09:29:42.986Z,18.43
2022-09-16T09:32:22.118Z,18.38
2022-09-16T09:35:14.768Z,18.58
2022-09-16T09:37:54.906Z,18.48
2022-09-16T09:40:32.644Z,18.57
2022-09-16T09:43:10.163Z,18.64
2022-09-16T09:45:41.422Z,18.51
2022-09-16T09:48:18.872Z,18.54
2022-09-16T09:50:48.087Z,18.47
2022-09-16T09:53:21.084Z,18.62
2022-09-16T09:55:50.904Z,18.55
2022-09-16T09:58:28.078Z,18.59
2022-09-16T10:00:57.870Z,18.59
2022-09-16T10:03:27.908Z,18.68
2022-09-16T10:08:27.268Z,18.56
2022-09-16T10:10:56.690Z,18.57
2022-09-16T10:13:27.387Z,18.33
2022-09-16T10:16:07.298Z,18.30
2022-09-16T10:18:34.678Z,18.29
2022-09-16T10:21:05.431Z,18.25
2022-09-16T10:23:33.839Z,18.34
2022-09-16T10:26:17.032Z,18.18
2022-09-16T10:28:56.839Z,18.26
2022-09-16T10:31:29.223Z,18.09
2022-09-16T10:34:01.385Z,18.06
2022-09-16T10:36:32.330Z,18.11
2022-09-16T10:39:04.434Z,18.10
2022-09-16T10:41:35.725Z,18.11
2022-09-16T10:44:17.135Z,18.19
2022-09-16T10:46:56.807Z,18.05
2022-09-16T10:49:31.740Z,18.33
2022-09-16T10:52:09.590Z,18.17
2022-09-16T10:54:36.975Z,18.32
2022-09-16T10:57:04.942Z,18.12
2022-09-16T10:59:33.871Z,18.18
2022-09-16T11:02:11.042Z,18.23
2022-09-16T11:04:55.288Z,18.22
2022-09-16T11:07:33.883Z,17.96
2022-09-16T11:10:10.911Z,17.97
2022-09-16T11:13:02.281Z,18.23
2022-09-16T11:15:44.043Z,18.03
2022-09-16T11:18:25.926Z,18.09
2022-09-16T11:21:19.062Z,18.07
2022-09-16T11:24:05.198Z,18.03
2022-09-16T11:26:44.438Z,18.13
2022-09-16T11:29:27.555Z,18.15
2022-09-16T11:32:08.137Z,18.08
2022-09-16T11:34:49.848Z,18.01
2022-09-16T11:37:25.794Z,17.87
2022-09-16T11:40:07.116Z,18.02
2022-09-16T11:42:38.157Z,17.89
2022-09-16T11:45:22.815Z,17.86
2022-09-16T11:48:13.832Z,17.88
2022-09-16T11:50:48.456Z,17.82
2022-09-16T11:53:43.792Z,17.65
2022-09-16T11:56:15.156Z,17.56
2022-09-16T11:58:47.952Z,17.44
2022-09-16T12:01:26.517Z,17.49
2022-09-16T12:03:58.855Z,17.54
2022-09-16T12:06:31.097Z,17.28
2022-09-16T12:09:05.544Z,17.39
2022-09-16T12:11:39.091Z,17.36
2022-09-16T12:14:13.722Z,17.30
2022-09-16T12:16:47.563Z,17.21
2022-09-16T12:19:23.011Z,17.11
2022-09-16T12:21:57.833Z,17.01
2022-09-16T12:24:36.322Z,16.95
2022-09-16T12:27:09.475Z,16.91
2022-09-16T12:29:46.746Z,17.06
2022-09-16T12:32:18.399Z,16.98
2022-09-16T12:34:55.701Z,17.00
2022-09-16T12:37:34.178Z,17.03
2022-09-16T12:40:01.544Z,17.15
2022-09-16T12:42:51.370Z,17.09
2022-09-16T12:45:34.509Z,17.01
2022-09-16T12:48:32.876Z,17.00
2022-09-16T12:51:17.330Z,17.03
2022-09-16T12:54:05.016Z,16.92
2022-09-16T12:57:05.477Z,16.90
2022-09-16T12:59:52.560Z,16.84
2022-09-16T13:02:22.780Z,16.75
2022-09-16T13:04:53.353Z,16.68
2022-09-16T13:07:25.638Z,16.71
2022-09-16T13:10:02.029Z,16.77
2022-09-16T13:12:40.972Z,16.89
2022-09-16T13:15:25.121Z,16.83
2022-09-16T13:17:53.435Z,16.90
2022-09-16T13:20:25.390Z,17.01
2022-09-16T13:23:03.741Z,17.00
2022-09-16T13:25:34.911Z,16.94
2022-09-16T13:28:05.092Z,16.84
2022-09-16T13:30:37.998Z,16.84
2022-09-16T13:33:28.842Z,16.80
2022-09-16T13:36:15.713Z,16.95
2022-09-16T13:38:46.203Z,17.00
2022-09-16T13:41:14.631Z,16.97
2022-09-16T13:43:53.115Z,17.00
2022-09-16T13:46:27.726Z,17.10
2022-09-16T13:49:00.522Z,16.80
2022-09-16T13:51:27.722Z,16.95
2022-09-16T13:54:02.789Z,16.93
2022-09-16T13:56:50.796Z,16.85
2022-09-16T13:59:35.160Z,16.88
2022-09-16T14:02:14.939Z,16.52
2022-09-16T14:05:01.323Z,16.39
2022-09-16T14:07:40.923Z,16.33
2022-09-16T14:10:17.282Z,16.23
2022-09-16T14:12:53.597Z,16.37
2022-09-16T14:15:22.067Z,16.35
2022-09-16T14:17:52.314Z,16.08
2022-09-16T14:20:22.626Z,16.02
2022-09-16T14:23:00.768Z,16.17
2022-09-16T14:25:31.546Z,15.85
2022-09-16T14:28:18.029Z,15.85
2022-09-16T14:30:50.793Z,15.74
2022-09-16T14:33:22.764Z,15.54
2022-09-16T14:35:51.601Z,15.46
2022-09-16T14:38:44.500Z,15.72
2022-09-16T14:41:19.687Z,15.89
2022-09-16T14:43:47.101Z,15.99
2022-09-16T14:46:14.849Z,15.72
2022-09-16T14:48:43.647Z,15.63
2022-09-16T14:51:22.502Z,15.88
2022-09-16T14:54:13.611Z,15.85
2022-09-16T14:56:42.606Z,15.90
2022-09-16T14:59:13.266Z,15.89
2022-09-16T15:01:41.313Z,16.10
2022-09-16T15:04:15.121Z,15.99
2022-09-16T15:06:47.633Z,16.01
2022-09-16T15:09:19.028Z,15.82
2022-09-16T15:11:50.847Z,15.64
2022-09-16T15:14:18.975Z,15.56
2022-09-16T15:16:49.506Z,15.55
2022-09-16T15:19:21.422Z,15.51
2022-09-16T15:21:49.090Z,15.30
2022-09-16T15:24:20.372Z,14.97
2022-09-16T15:26:49.662Z,15.05
2022-09-16T15:29:30.033Z,14.81
2022-09-16T15:32:14.902Z,14.87
2022-09-16T15:34:48.378Z,14.84
2022-09-16T15:37:37.001Z,14.67
2022-09-16T15:40:31.750Z,14.92
2022-09-16T15:43:12.164Z,14.73
2022-09-16T15:45:40.075Z,14.76
2022-09-16T15:48:14.024Z,14.67
2022-09-16T15:50:45.628Z,14.65
2022-09-16T15:53:17.587Z,14.62
2022-09-16T15:55:55.912Z,14.74
2022-09-16T15:58:39.639Z,14.62
2022-09-16T16:01:15.602Z,14.52
2022-09-16T16:03:54.934Z,14.67
2022-09-16T16:06:48.565Z,14.50
2022-09-16T16:09:38.119Z,14.51
2022-09-16T16:12:10.531Z,14.36
2022-09-16T16:14:39.014Z,14.45
2022-09-16T16:17:13.628Z,14.41
2022-09-16T16:19:45.430Z,14.21
2022-09-16T16:22:14.821Z,14.14
2022-09-16T16:24:42.807Z,14.28
2022-09-16T16:27:10.732Z,14.17
2022-09-16T16:29:39.260Z,14.27
2022-09-16T16:32:11.291Z,14.34
2022-09-16T16:34:40.167Z,14.26
2022-09-16T16:37:08.562Z,14.42
2022-09-16T16:39:37.627Z,14.52
2022-09-16T16:42:06.046Z,14.63
2022-09-16T16:44:33.736Z,14.45
2022-09-16T16:47:08.639Z,14.27
2022-09-16T16:49:36.450Z,14.42
2022-09-16T16:52:05.339Z,14.29
2022-09-16T16:54:33.547Z,14.31
2022-09-16T16:57:04.108Z,14.42
2022-09-16T16:59:33.939Z,14.58
2022-09-16T17:02:01.583Z,14.50
2022-09-16T17:04:28.897Z,14.45
2022-09-16T17:07:21.427Z,14.39
2022-09-16T17:09:45.051Z,14.46
2022-09-16T17:12:13.737Z,14.58
2022-09-16T17:14:42.259Z,14.50
2022-09-16T17:17:09.569Z,14.36
2022-09-16T17:19:36.963Z,14.32
2022-09-16T17:22:04.618Z,14.35
2022-09-16T17:24:31.788Z,14.23
2022-09-16T17:26:59.024Z,14.40
2022-09-16T17:29:27.664Z,14.29
2022-09-16T17:31:57.218Z,14.31
2022-09-16T17:34:26.505Z,14.25
2022-09-16T17:36:54.723Z,14.35
2022-09-16T17:39:22.925Z,14.47
2022-09-16T17:41:51.229Z,14.47
2022-09-16T17:44:19.945Z,14.33
2022-09-16T17:46:48.500Z,14.36
2022-09-16T17:49:17.669Z,14.06
2022-09-16T17:51:45.831Z,13.98
2022-09-16T17:54:13.413Z,13.98
2022-09-16T17:56:42.596Z,13.97
2022-09-16T17:59:11.094Z,14.15
2022-09-16T18:01:38.655Z,14.11
2022-09-16T18:04:08.214Z,14.01
2022-09-16T18:06:41.058Z,14.10
2022-09-16T18:09:08.793Z,14.10
2022-09-16T18:11:37.368Z,14.01
2022-09-16T18:14:06.803Z,13.75
2022-09-16T18:16:34.570Z,13.86
2022-09-16T18:19:02.841Z,13.95
2022-09-16T18:21:32.306Z,13.96
2022-09-16T18:24:02.541Z,13.98
2022-09-16T18:26:30.652Z,13.91
2022-09-16T18:29:09.519Z,14.03
2022-09-16T18:31:38.224Z,14.04
2022-09-16T18:34:06.012Z,13.93
2022-09-16T18:36:37.024Z,14.05
2022-09-16T18:39:05.380Z,13.95
2022-09-16T18:41:37.958Z,14.05
2022-09-16T18:44:07.677Z,13.84
2022-09-16T18:46:36.241Z,13.82
2022-09-16T18:49:04.159Z,13.86
2022-09-16T18:51:35.033Z,13.88
2022-09-16T18:54:06.024Z,13.86
2022-09-16T18:56:34.969Z,13.72
2022-09-16T18:59:22.001Z,13.72
2022-09-16T19:01:51.273Z,13.80
2022-09-16T19:04:20.827Z,13.77
2022-09-16T19:06:52.996Z,13.82
2022-09-16T19:09:20.931Z,13.81
2022-09-16T19:11:48.512Z,13.73
2022-09-16T19:14:16.094Z,13.71
2022-09-16T19:16:45.222Z,13.65
2022-09-16T19:19:14.139Z,13.49
2022-09-16T19:21:42.328Z,13.62
2022-09-16T19:24:14.491Z,13.55
2022-09-16T19:26:45.034Z,13.66
2022-09-16T19:29:13.814Z,13.62
2022-09-16T19:31:43.040Z,13.66
2022-09-16T19:34:11.208Z,13.63
2022-09-16T19:36:39.187Z,13.61
2022-09-16T19:39:07.932Z,13.62
2022-09-16T19:41:38.660Z,13.65
2022-09-16T19:44:08.166Z,13.53
2022-09-16T19:46:37.807Z,13.58
2022-09-16T19:49:06.371Z,13.67
2022-09-16T19:51:33.947Z,13.60
2022-09-16T19:54:01.415Z,13.63
2022-09-16T19:56:33.456Z,13.61
2022-09-16T19:59:01.955Z,13.66
2022-09-16T20:01:31.405Z,13.74
2022-09-16T20:03:59.020Z,13.72
2022-09-16T20:06:28.112Z,13.79
2022-09-16T20:08:58.827Z,13.78
2022-09-16T20:11:27.988Z,13.67
2022-09-16T20:13:57.015Z,13.62
2022-09-16T20:16:28.435Z,13.78
2022-09-16T20:18:55.758Z,13.70
2022-09-16T20:21:26.110Z,13.72
2022-09-16T20:23:54.734Z,13.81
2022-09-16T20:26:22.970Z,13.78
2022-09-16T20:28:52.138Z,13.87
2022-09-16T20:31:21.696Z,13.71
2022-09-16T20:33:51.219Z,13.79
2022-09-16T20:36:20.055Z,13.79
2022-09-16T20:38:47.742Z,13.77
2022-09-16T20:41:18.876Z,13.75
2022-09-16T20:43:46.862Z,13.73
2022-09-16T20:46:19.737Z,13.73
2022-09-16T20:48:48.769Z,13.72
2022-09-16T20:51:19.174Z,13.71
2022-09-16T20:53:52.608Z,13.74
2022-09-16T20:56:20.680Z,13.73
2022-09-16T20:58:48.203Z,13.76
2022-09-16T21:01:17.309Z,13.70
2022-09-16T21:03:45.803Z,13.68
2022-09-16T21:06:14.952Z,13.64
2022-09-16T21:08:44.138Z,13.78
2022-09-16T21:11:13.488Z,13.72
2022-09-16T21:13:42.788Z,13.75
2022-09-16T21:16:11.849Z,13.63
2022-09-16T21:18:39.682Z,13.66
2022-09-16T21:21:08.847Z,13.60
2022-09-16T21:23:36.657Z,13.70
2022-09-16T21:26:07.149Z,13.66
2022-09-16T21:28:34.776Z,13.63
2022-09-16T21:31:03.317Z,13.59
2022-09-16T21:33:32.722Z,13.50
2022-09-16T21:36:00.055Z,13.59
2022-09-16T21:38:28.426Z,13.57
2022-09-16T21:40:57.090Z,13.56
2022-09-16T21:43:27.556Z,13.47
2022-09-16T21:45:55.092Z,13.48
2022-09-16T21:48:22.726Z,13.43
2022-09-16T21:50:50.457Z,13.42
2022-09-16T21:53:17.854Z,13.44
2022-09-16T21:55:45.089Z,13.34
2022-09-16T21:58:12.269Z,13.30
2022-09-16T22:00:41.082Z,13.30
2022-09-16T22:03:08.424Z,13.37
2022-09-16T22:05:35.574Z,13.21
2022-09-16T22:08:03.312Z,13.28
2022-09-16T22:10:30.867Z,13.23
2022-09-16T22:12:58.239Z,13.18
2022-09-16T22:15:25.450Z,13.24
2022-09-16T22:17:54.312Z,13.15
2022-09-16T22:20:25.476Z,13.19
2022-09-16T22:22:52.679Z,13.19
2022-09-16T22:25:19.809Z,13.16
2022-09-16T22:27:46.959Z,13.15
2022-09-16T22:30:14.426Z,13.11
2022-09-16T22:32:41.717Z,12.95
2022-09-16T22:35:10.417Z,12.93
2022-09-16T22:37:37.645Z,12.93
2022-09-16T22:40:06.942Z,12.82
2022-09-16T22:42:34.266Z,12.90
2022-09-16T22:45:02.001Z,12.86
2022-09-16T22:47:30.326Z,12.85
2022-09-16T22:49:57.541Z,12.81
2022-09-16T22:52:26.242Z,12.86
2022-09-16T22:54:53.501Z,12.83
2022-09-16T22:57:20.716Z,12.74
2022-09-16T22:59:47.883Z,12.82
2022-09-16T23:02:15.289Z,12.65
2022-09-16T23:04:42.630Z,12.56
2022-09-16T23:07:10.268Z,12.55
2022-09-16T23:09:38.987Z,12.58
2022-09-16T23:12:06.626Z,12.49
2022-09-16T23:14:33.917Z,12.39
2022-09-16T23:17:01.076Z,12.27
2022-09-16T23:19:28.523Z,12.29
2022-09-16T23:21:56.052Z,12.29
2022-09-16T23:24:23.457Z,12.24
2022-09-16T23:26:52.035Z,12.26
2022-09-16T23:29:19.299Z,12.16
2022-09-16T23:31:46.646Z,12.06
2022-09-16T23:34:17.963Z,12.01
2022-09-16T23:36:45.990Z,12.04
2022-09-16T23:39:15.328Z,11.98
2022-09-16T23:41:43.717Z,12.00
2022-09-16T23:44:14.978Z,12.01
2022-09-16T23:46:42.272Z,11.91
2022-09-16T23:49:10.142Z,11.86
2022-09-16T23:51:37.750Z,11.73
2022-09-16T23:54:05.051Z,11.72
2022-09-16T23:56:32.833Z,11.63
2022-09-16T23:59:01.085Z,11.57
